Hg 306 Tobis — OUPS — position and weather

sailwx.info

Track history (hours):
 
Tides and Currents Weather Stations Pressure Air Temp Water Temp Dewpoint Dewpoint Depression Visibility Wind Speed Wind Dir Waves Ship Positions

Hg 306 Tobis

Last reported at 2014-Oct-30 07:07 UTC. Time now 2014-Nov-01 09:54 UTC.
Position N 58°13' E 005°00'.

Length 40 m; draft 6.5 m.

Type: Fishing. MMSI: 219013001.

Date/timePositionNaut miles runAvg speedWind from/ knotsBaromVisibWave heightAir tempDewpointWater temp
2014-Oct-30 07:07N 58°13' E 005°00'5 9.8
2014-Oct-30 06:33N 58°12' E 005°10'10 9.7
2014-Oct-30 05:33N 58°09' E 005°28'10 9.8
2014-Oct-30 04:33N 58°07' E 005°46'1010.0
2014-Oct-30 03:32N 58°04' E 006°04'9 9.3
2014-Oct-30 02:33N 58°01' E 006°21'104 9.4
2014-Oct-29 15:32N 57°38' E 009°31'8 8.3
2014-Oct-29 14:32N 57°37' E 009°46'7 0.9
2014-Oct-29 06:32N 57°36' E 009°58'0 0.0
2014-Oct-29 05:33N 57°36' E 009°58'0 0.0
2014-Oct-29 04:33N 57°36' E 009°58'0 0.0
2014-Oct-28 17:17N 57°36' E 009°58'49 3.6
2014-Oct-28 03:31N 57°11' E 008°40'  
2014-Oct-21 22:15N 58°49' E 005°00'710.2
2014-Oct-21 21:33N 58°44' E 005°10'2010.0
2014-Oct-21 19:33N 58°30' E 005°38'10 9.8
2014-Oct-21 18:33N 58°24' E 005°52'10 9.8
2014-Oct-21 17:33N 58°17' E 006°06'10 9.9
2014-Oct-21 16:33N 58°10' E 006°19'6210.2
2014-Oct-21 10:31N 57°30' E 007°47'10 9.7
2014-Oct-21 09:31N 57°24' E 008°01'  
Track history (hours):
 
Tides and Currents Weather Stations Pressure Air Temp Water Temp Dewpoint Dewpoint Depression Visibility Wind Speed Wind Dir Waves Ship Positions

Hg 306 Tobis

Last reported at 2014-Oct-30 07:07 UTC. Time now 2014-Nov-01 09:54 UTC.
Position N 58°13' E 005°00'.

Length 40 m; draft 6.5 m.

Type: Fishing. MMSI: 219013001.

Date/timePositionNaut miles runAvg speedWind from/ knotsBaromVisibWave heightAir tempDewpointWater temp
2014-Oct-30 07:07N 58°13' E 005°00'5 9.8
2014-Oct-30 06:33N 58°12' E 005°10'10 9.7
2014-Oct-30 05:33N 58°09' E 005°28'10 9.8
2014-Oct-30 04:33N 58°07' E 005°46'1010.0
2014-Oct-30 03:32N 58°04' E 006°04'9 9.3
2014-Oct-30 02:33N 58°01' E 006°21'104 9.4
2014-Oct-29 15:32N 57°38' E 009°31'8 8.3
2014-Oct-29 14:32N 57°37' E 009°46'7 0.9
2014-Oct-29 06:32N 57°36' E 009°58'0 0.0
2014-Oct-29 05:33N 57°36' E 009°58'0 0.0
2014-Oct-29 04:33N 57°36' E 009°58'0 0.0
2014-Oct-28 17:17N 57°36' E 009°58'49 3.6
2014-Oct-28 03:31N 57°11' E 008°40'  
2014-Oct-21 22:15N 58°49' E 005°00'710.2
2014-Oct-21 21:33N 58°44' E 005°10'2010.0
2014-Oct-21 19:33N 58°30' E 005°38'10 9.8
2014-Oct-21 18:33N 58°24' E 005°52'10 9.8
2014-Oct-21 17:33N 58°17' E 006°06'10 9.9
2014-Oct-21 16:33N 58°10' E 006°19'6210.2
2014-Oct-21 10:31N 57°30' E 007°47'10 9.7
2014-Oct-21 09:31N 57°24' E 008°01'  

Dump ship's entire track history